createdAt,value
2023-02-18T00:00:45.222Z,76.24
2023-02-18T00:03:18.540Z,76.24
2023-02-18T00:05:51.829Z,76.67
2023-02-18T00:08:26.688Z,76.34
2023-02-18T00:11:00.236Z,76.31
2023-02-18T00:13:34.220Z,76.59
2023-02-18T00:16:09.998Z,76.47
2023-02-18T00:18:44.103Z,76.93
2023-02-18T00:21:17.576Z,76.98
2023-02-18T00:23:52.168Z,77.19
2023-02-18T00:26:25.956Z,77.19
2023-02-18T00:28:59.310Z,76.81
2023-02-18T00:31:34.939Z,77.08
2023-02-18T00:34:08.245Z,77.00
2023-02-18T00:36:42.024Z,77.03
2023-02-18T00:39:16.608Z,77.41
2023-02-18T00:41:50.523Z,78.01
2023-02-18T00:44:24.060Z,77.91
2023-02-18T00:46:57.413Z,78.37
2023-02-18T00:49:31.272Z,78.33
2023-02-18T00:52:04.992Z,77.76
2023-02-18T00:54:39.477Z,77.69
2023-02-18T00:57:12.753Z,78.66
2023-02-18T00:59:46.484Z,78.26
2023-02-18T01:02:19.923Z,78.45
2023-02-18T01:04:53.154Z,79.20
2023-02-18T01:07:26.455Z,78.92
2023-02-18T01:10:01.486Z,78.48
2023-02-18T01:12:35.394Z,78.91
2023-02-18T01:15:10.368Z,78.85
2023-02-18T01:17:44.326Z,78.64
2023-02-18T01:20:17.866Z,78.87
2023-02-18T01:22:51.205Z,78.99
2023-02-18T01:25:25.761Z,78.97
2023-02-18T01:27:59.379Z,78.86
2023-02-18T01:30:33.335Z,79.94
2023-02-18T01:33:07.365Z,79.73
2023-02-18T01:35:41.796Z,80.25
2023-02-18T01:38:15.228Z,80.66
2023-02-18T01:40:53.299Z,80.15
2023-02-18T01:43:26.497Z,79.91
2023-02-18T01:46:15.594Z,80.56
2023-02-18T01:48:52.826Z,80.56
2023-02-18T01:51:29.744Z,81.03
2023-02-18T01:54:05.844Z,80.74
2023-02-18T01:56:43.820Z,81.73
2023-02-18T01:59:24.499Z,80.88
2023-02-18T02:01:58.739Z,82.46
2023-02-18T02:04:32.066Z,82.02
2023-02-18T02:07:06.253Z,81.69
2023-02-18T02:09:42.490Z,81.36
2023-02-18T02:12:37.470Z,80.67
2023-02-18T02:15:26.510Z,81.93
2023-02-18T02:18:13.682Z,81.10
2023-02-18T02:21:31.257Z,81.27
2023-02-18T02:24:39.270Z,81.62
2023-02-18T02:27:23.247Z,81.95
2023-02-18T02:30:31.366Z,81.29
2023-02-18T02:33:35.217Z,81.98
2023-02-18T02:36:15.371Z,82.33
2023-02-18T02:38:57.562Z,81.82
2023-02-18T02:41:46.648Z,82.13
2023-02-18T02:44:24.329Z,81.55
2023-02-18T02:47:03.380Z,81.75
2023-02-18T02:49:45.977Z,81.62
2023-02-18T02:52:24.365Z,81.56
2023-02-18T02:54:57.692Z,82.04
2023-02-18T02:57:43.284Z,81.52
2023-02-18T03:00:19.859Z,81.79
2023-02-18T03:03:06.509Z,82.22
2023-02-18T03:05:52.133Z,82.09
2023-02-18T03:08:36.043Z,82.49
2023-02-18T03:11:12.577Z,82.33
2023-02-18T03:14:03.794Z,82.34
2023-02-18T03:16:48.242Z,82.90
2023-02-18T03:19:23.991Z,82.66
2023-02-18T03:22:01.249Z,82.50
2023-02-18T03:24:39.372Z,82.53
2023-02-18T03:27:17.681Z,81.84
2023-02-18T03:29:57.416Z,82.13
2023-02-18T03:32:33.061Z,82.28
2023-02-18T03:35:11.425Z,81.45
2023-02-18T03:37:49.514Z,81.06
2023-02-18T03:40:24.293Z,82.33
2023-02-18T03:42:58.722Z,81.70
2023-02-18T03:45:32.024Z,81.74
2023-02-18T03:48:05.850Z,81.80
2023-02-18T03:50:38.814Z,80.90
2023-02-18T03:53:12.482Z,81.25
2023-02-18T03:55:47.235Z,81.06
2023-02-18T03:58:20.735Z,80.77
2023-02-18T04:00:54.380Z,80.89
2023-02-18T04:03:27.645Z,80.34
2023-02-18T04:06:00.938Z,80.70
2023-02-18T04:08:34.189Z,80.70
2023-02-18T04:11:08.922Z,80.13
2023-02-18T04:13:42.778Z,80.79
2023-02-18T04:16:16.816Z,81.05
2023-02-18T04:18:50.242Z,80.63
2023-02-18T04:21:23.759Z,80.61
2023-02-18T04:23:57.034Z,81.81
2023-02-18T04:26:31.714Z,81.77
2023-02-18T04:29:05.128Z,81.40
2023-02-18T04:31:38.651Z,81.02
2023-02-18T04:34:12.067Z,81.91
2023-02-18T04:36:45.435Z,81.18
2023-02-18T04:39:18.644Z,81.45
2023-02-18T04:41:53.680Z,80.95
2023-02-18T04:44:26.954Z,81.57
2023-02-18T04:47:00.558Z,81.11
2023-02-18T04:49:34.301Z,81.75
2023-02-18T04:52:07.908Z,82.19
2023-02-18T04:54:42.170Z,81.78
2023-02-18T04:57:17.014Z,81.69
2023-02-18T04:59:50.210Z,81.38
2023-02-18T05:02:23.453Z,81.36
2023-02-18T05:04:56.789Z,81.96
2023-02-18T05:07:30.327Z,81.86
2023-02-18T05:10:05.281Z,82.36
2023-02-18T05:12:40.424Z,82.72
2023-02-18T05:15:14.112Z,82.12
2023-02-18T05:17:48.737Z,82.04
2023-02-18T05:20:22.336Z,82.11
2023-02-18T05:22:55.654Z,83.37
2023-02-18T05:25:29.246Z,81.98
2023-02-18T05:28:03.820Z,82.97
2023-02-18T05:30:37.193Z,82.52
2023-02-18T05:33:10.635Z,82.86
2023-02-18T05:35:43.998Z,81.95
2023-02-18T05:38:17.370Z,82.05
2023-02-18T05:40:50.899Z,82.35
2023-02-18T05:43:25.692Z,82.07
2023-02-18T05:45:58.978Z,80.48
2023-02-18T05:48:32.244Z,80.60
2023-02-18T05:51:06.273Z,80.80
2023-02-18T05:53:39.308Z,80.35
2023-02-18T05:56:13.224Z,80.37
2023-02-18T05:58:48.331Z,80.04
2023-02-18T06:01:21.620Z,80.54
2023-02-18T06:03:54.949Z,80.18
2023-02-18T06:06:28.520Z,79.93
2023-02-18T06:09:02.163Z,80.01
2023-02-18T06:11:36.043Z,79.48
2023-02-18T06:14:11.094Z,78.78
2023-02-18T06:16:44.555Z,79.53
2023-02-18T06:19:18.076Z,79.21
2023-02-18T06:21:51.440Z,78.83
2023-02-18T06:24:26.165Z,78.66
2023-02-18T06:26:59.420Z,78.68
2023-02-18T06:29:36.001Z,78.52
2023-02-18T06:32:09.566Z,78.59
2023-02-18T06:34:43.209Z,78.75
2023-02-18T06:37:16.776Z,78.34
2023-02-18T06:39:50.204Z,78.04
2023-02-18T06:42:23.639Z,77.94
2023-02-18T06:44:58.496Z,77.90
2023-02-18T06:47:31.778Z,77.91
2023-02-18T06:50:05.514Z,78.06
2023-02-18T06:52:39.178Z,77.35
2023-02-18T06:55:12.898Z,77.27
2023-02-18T06:57:46.431Z,77.20
2023-02-18T07:00:22.905Z,77.25
2023-02-18T07:02:56.269Z,77.46
2023-02-18T07:05:30.029Z,76.89
2023-02-18T07:08:03.406Z,77.08
2023-02-18T07:10:36.924Z,76.74
2023-02-18T07:13:10.976Z,76.97
2023-02-18T07:15:46.512Z,76.59
2023-02-18T07:18:20.499Z,75.83
2023-02-18T07:20:53.762Z,75.54
2023-02-18T07:23:27.241Z,75.64
2023-02-18T07:26:06.034Z,75.62
2023-02-18T07:28:39.823Z,75.32
2023-02-18T07:31:15.090Z,75.38
2023-02-18T07:33:48.399Z,74.60
2023-02-18T07:36:21.819Z,74.55
2023-02-18T07:38:55.026Z,74.39
2023-02-18T07:41:28.295Z,74.37
2023-02-18T07:44:01.691Z,74.56
2023-02-18T07:46:40.541Z,74.42
2023-02-18T07:49:13.924Z,74.58
2023-02-18T07:51:48.745Z,75.03
2023-02-18T07:54:22.382Z,74.39
2023-02-18T07:56:55.972Z,75.02
2023-02-18T07:59:29.685Z,75.08
2023-02-18T08:02:05.531Z,74.70
2023-02-18T08:04:38.820Z,74.61
2023-02-18T08:07:14.855Z,74.81
2023-02-18T08:09:49.163Z,74.46
2023-02-18T08:12:23.401Z,74.88
2023-02-18T08:14:56.988Z,74.48
2023-02-18T08:17:32.067Z,74.95
2023-02-18T08:20:06.325Z,74.96
2023-02-18T08:22:39.890Z,74.45
2023-02-18T08:25:27.540Z,74.96
2023-02-18T08:28:02.367Z,75.23
2023-02-18T08:30:35.810Z,74.37
2023-02-18T08:33:10.831Z,74.24
2023-02-18T08:35:45.066Z,73.45
2023-02-18T08:38:18.373Z,73.52
2023-02-18T08:40:52.720Z,72.19
2023-02-18T08:43:26.416Z,71.89
2023-02-18T08:46:00.468Z,70.28
2023-02-18T08:48:34.840Z,68.95
2023-02-18T08:51:16.762Z,68.42
2023-02-18T08:53:50.699Z,67.42
2023-02-18T08:56:24.521Z,66.18
2023-02-18T08:58:57.749Z,66.58
2023-02-18T09:01:31.507Z,66.17
2023-02-18T09:04:06.513Z,66.14
2023-02-18T09:06:40.059Z,65.82
2023-02-18T09:09:13.291Z,65.96
2023-02-18T09:11:47.563Z,65.79
2023-02-18T09:14:21.744Z,65.50
2023-02-18T09:16:55.282Z,66.38
2023-02-18T09:19:29.950Z,66.72
2023-02-18T09:22:03.179Z,66.00
2023-02-18T09:24:38.664Z,66.08
2023-02-18T09:27:12.439Z,66.46
2023-02-18T09:29:45.813Z,65.03
2023-02-18T09:32:32.381Z,65.29
2023-02-18T09:35:09.578Z,64.51
2023-02-18T09:37:43.200Z,64.58
2023-02-18T09:40:27.291Z,63.70
2023-02-18T09:43:01.779Z,63.74
2023-02-18T09:45:35.452Z,63.12
2023-02-18T09:48:10.882Z,62.34
2023-02-18T09:50:49.174Z,61.15
2023-02-18T09:53:23.619Z,59.28
2023-02-18T09:55:58.604Z,59.83
2023-02-18T09:58:34.708Z,57.10
2023-02-18T10:01:16.814Z,54.98
2023-02-18T10:03:50.581Z,52.14
2023-02-18T10:06:28.380Z,48.33
2023-02-18T10:09:04.980Z,47.36
2023-02-18T10:11:41.945Z,47.68
2023-02-18T10:14:16.992Z,45.60
2023-02-18T10:16:53.842Z,46.41
2023-02-18T10:19:35.716Z,47.21
2023-02-18T10:22:15.170Z,47.77
2023-02-18T10:24:52.706Z,46.89
2023-02-18T10:27:28.139Z,45.92
2023-02-18T10:30:13.962Z,46.90
2023-02-18T10:32:48.664Z,47.61
2023-02-18T10:35:26.500Z,47.03
2023-02-18T10:38:11.799Z,47.17
2023-02-18T10:40:55.441Z,47.08
2023-02-18T10:43:37.691Z,46.25
2023-02-18T10:46:18.702Z,46.79
2023-02-18T10:49:04.606Z,47.43
2023-02-18T10:51:41.198Z,46.58
2023-02-18T10:54:17.036Z,47.55
2023-02-18T10:56:51.808Z,47.90
2023-02-18T10:59:28.424Z,46.99
2023-02-18T11:02:05.203Z,46.64
2023-02-18T11:04:41.130Z,46.68
2023-02-18T11:07:20.300Z,48.02
2023-02-18T11:09:57.042Z,46.51
2023-02-18T11:12:41.220Z,45.18
2023-02-18T11:15:19.365Z,44.43
2023-02-18T11:17:55.308Z,43.96
2023-02-18T11:20:33.622Z,40.86
2023-02-18T11:23:21.819Z,39.91
2023-02-18T11:26:03.434Z,39.82
2023-02-18T11:28:46.184Z,39.39
2023-02-18T11:31:26.641Z,39.29
2023-02-18T11:34:03.946Z,39.16
2023-02-18T11:36:38.808Z,37.25
2023-02-18T11:39:20.829Z,37.24
2023-02-18T11:41:59.398Z,36.45
2023-02-18T11:44:35.701Z,37.71
2023-02-18T11:47:24.697Z,34.66
2023-02-18T11:50:17.636Z,33.69
2023-02-18T11:52:54.008Z,33.33
2023-02-18T11:55:30.605Z,32.73
2023-02-18T11:58:08.681Z,32.77
2023-02-18T12:00:44.418Z,32.97
2023-02-18T12:03:29.730Z,32.92
2023-02-18T12:06:07.048Z,34.16
2023-02-18T12:08:50.098Z,33.66
2023-02-18T12:11:30.038Z,33.48
2023-02-18T12:14:05.017Z,33.88
2023-02-18T12:16:47.097Z,33.58
2023-02-18T12:19:38.430Z,33.94
2023-02-18T12:22:17.731Z,34.03
2023-02-18T12:25:08.811Z,34.98
2023-02-18T12:27:50.453Z,33.96
2023-02-18T12:30:58.291Z,33.70
2023-02-18T12:33:43.690Z,33.55
2023-02-18T12:36:29.234Z,33.85
2023-02-18T12:39:14.938Z,33.32
2023-02-18T12:42:10.534Z,35.19
2023-02-18T12:44:57.780Z,34.49
2023-02-18T12:47:45.274Z,35.04
2023-02-18T12:50:46.787Z,35.10
2023-02-18T12:53:35.204Z,35.91
2023-02-18T12:56:36.379Z,35.55
2023-02-18T12:59:17.508Z,36.42
2023-02-18T13:02:01.951Z,36.76
2023-02-18T13:04:48.229Z,36.80
2023-02-18T13:07:45.473Z,37.10
2023-02-18T13:10:38.094Z,37.24
2023-02-18T13:13:15.673Z,36.89
2023-02-18T13:15:54.334Z,37.32
2023-02-18T13:18:33.979Z,36.36
2023-02-18T13:21:12.167Z,36.92
2023-02-18T13:23:53.076Z,36.59
2023-02-18T13:26:28.072Z,35.98
2023-02-18T13:29:19.296Z,36.58
2023-02-18T13:32:03.373Z,36.31
2023-02-18T13:34:42.982Z,36.53
2023-02-18T13:37:27.917Z,36.62
2023-02-18T13:40:02.558Z,36.38
2023-02-18T13:42:38.809Z,36.61
2023-02-18T13:45:34.011Z,36.30
2023-02-18T13:48:24.190Z,36.25
2023-02-18T13:51:04.671Z,36.63
2023-02-18T13:53:42.830Z,36.02
2023-02-18T13:56:24.013Z,36.18
2023-02-18T13:59:01.972Z,35.54
2023-02-18T14:01:44.389Z,36.33
2023-02-18T14:04:37.577Z,36.28
2023-02-18T14:07:45.461Z,35.79
2023-02-18T14:10:39.595Z,35.78
2023-02-18T14:13:40.259Z,35.38
2023-02-18T14:16:13.817Z,35.39
2023-02-18T14:19:28.194Z,34.96
2023-02-18T14:22:29.179Z,35.00
2023-02-18T14:25:05.678Z,35.39
2023-02-18T14:27:42.110Z,35.74
2023-02-18T14:30:25.344Z,35.38
2023-02-18T14:33:02.071Z,35.53
2023-02-18T14:35:39.857Z,35.81
2023-02-18T14:38:40.500Z,35.93
2023-02-18T14:41:24.088Z,35.69
2023-02-18T14:44:34.059Z,36.72
2023-02-18T14:47:28.965Z,36.95
2023-02-18T14:50:05.132Z,36.88
2023-02-18T14:52:43.952Z,37.00
2023-02-18T14:55:21.844Z,37.19
2023-02-18T14:57:57.444Z,37.00
2023-02-18T15:00:36.522Z,37.82
2023-02-18T15:03:14.885Z,37.78
2023-02-18T15:05:48.457Z,37.73
2023-02-18T15:08:22.921Z,37.15
2023-02-18T15:11:00.886Z,37.65
2023-02-18T15:13:38.317Z,37.00
2023-02-18T15:16:19.826Z,37.07
2023-02-18T15:18:56.954Z,37.32
2023-02-18T15:21:32.769Z,37.54
2023-02-18T15:24:09.470Z,37.57
2023-02-18T15:26:45.872Z,37.63
2023-02-18T15:29:21.523Z,38.76
2023-02-18T15:31:58.987Z,38.80
2023-02-18T15:34:36.768Z,39.09
2023-02-18T15:37:14.092Z,40.59
2023-02-18T15:39:48.157Z,40.57
2023-02-18T15:42:27.989Z,41.05
2023-02-18T15:45:06.593Z,41.79
2023-02-18T15:47:45.314Z,42.33
2023-02-18T15:50:20.707Z,42.65
2023-02-18T15:52:56.365Z,43.62
2023-02-18T15:55:33.329Z,43.57
2023-02-18T15:58:13.083Z,44.66
2023-02-18T16:00:50.372Z,44.78
2023-02-18T16:03:27.239Z,45.73
2023-02-18T16:06:18.915Z,45.79
2023-02-18T16:08:59.247Z,46.91
2023-02-18T16:11:39.511Z,47.22
2023-02-18T16:14:26.247Z,46.27
2023-02-18T16:17:08.488Z,46.35
2023-02-18T16:20:03.465Z,47.12
2023-02-18T16:22:44.152Z,48.92
2023-02-18T16:25:20.316Z,50.21
2023-02-18T16:27:55.925Z,50.74
2023-02-18T16:30:32.596Z,51.68
2023-02-18T16:33:06.001Z,52.79
2023-02-18T16:35:49.418Z,53.29
2023-02-18T16:38:25.492Z,53.76
2023-02-18T16:40:58.885Z,54.24
2023-02-18T16:43:33.266Z,54.33
2023-02-18T16:46:10.465Z,54.82
2023-02-18T16:48:46.489Z,54.85
2023-02-18T16:51:25.129Z,55.70
2023-02-18T16:53:58.600Z,55.62
2023-02-18T16:56:35.526Z,56.03
2023-02-18T16:59:09.203Z,56.79
2023-02-18T17:01:46.088Z,57.07
2023-02-18T17:04:20.490Z,57.29
2023-02-18T17:06:55.420Z,57.85
2023-02-18T17:09:28.770Z,58.15
2023-02-18T17:12:05.274Z,58.26
2023-02-18T17:14:39.130Z,58.68
2023-02-18T17:17:13.967Z,58.81
2023-02-18T17:19:47.379Z,59.62
2023-02-18T17:22:22.282Z,59.81
2023-02-18T17:24:55.550Z,59.74
2023-02-18T17:27:29.108Z,59.87
2023-02-18T17:30:02.601Z,60.70
2023-02-18T17:32:36.298Z,60.62
2023-02-18T17:35:11.260Z,60.61
2023-02-18T17:37:46.130Z,60.70
2023-02-18T17:40:21.726Z,61.45
2023-02-18T17:42:56.606Z,62.06
2023-02-18T17:45:35.132Z,62.32
2023-02-18T17:48:08.551Z,62.03
2023-02-18T17:50:42.783Z,62.34
2023-02-18T17:53:19.211Z,62.74
2023-02-18T17:55:54.430Z,63.29
2023-02-18T17:58:27.805Z,64.12
2023-02-18T18:01:01.361Z,63.92
2023-02-18T18:03:34.699Z,64.22
2023-02-18T18:06:15.557Z,64.80
2023-02-18T18:08:50.847Z,65.30
2023-02-18T18:11:26.331Z,65.29
2023-02-18T18:14:00.562Z,65.84
2023-02-18T18:16:33.872Z,66.20
2023-02-18T18:19:07.400Z,66.34
2023-02-18T18:21:41.451Z,66.27
2023-02-18T18:24:16.348Z,66.60
2023-02-18T18:26:49.730Z,66.25
2023-02-18T18:29:23.008Z,66.74
2023-02-18T18:31:56.655Z,67.23
2023-02-18T18:34:30.341Z,67.45
2023-02-18T18:37:03.494Z,67.38
2023-02-18T18:39:38.298Z,68.04
2023-02-18T18:42:13.568Z,67.78
2023-02-18T18:44:46.832Z,68.88
2023-02-18T18:47:20.196Z,69.12
2023-02-18T18:49:53.787Z,69.09
2023-02-18T18:52:27.375Z,69.35
2023-02-18T18:55:02.196Z,69.95
2023-02-18T18:57:35.920Z,70.81
2023-02-18T19:00:11.472Z,70.90
2023-02-18T19:02:44.647Z,70.96
2023-02-18T19:05:21.981Z,71.24
2023-02-18T19:07:55.629Z,71.28
2023-02-18T19:10:31.129Z,71.81
2023-02-18T19:13:07.814Z,71.92
2023-02-18T19:15:42.533Z,71.82
2023-02-18T19:18:18.129Z,71.83
2023-02-18T19:20:51.590Z,71.61
2023-02-18T19:23:25.359Z,71.76
2023-02-18T19:26:00.654Z,72.36
2023-02-18T19:28:34.422Z,72.62
2023-02-18T19:31:11.689Z,72.59
2023-02-18T19:33:46.997Z,72.85
2023-02-18T19:36:20.341Z,73.61
2023-02-18T19:38:53.710Z,73.70
2023-02-18T19:41:28.736Z,73.20
2023-02-18T19:44:02.166Z,74.28
2023-02-18T19:46:35.358Z,73.86
2023-02-18T19:49:08.811Z,73.46
2023-02-18T19:51:42.061Z,74.15
2023-02-18T19:54:15.499Z,74.55
2023-02-18T19:56:50.265Z,74.10
2023-02-18T19:59:23.854Z,74.48
2023-02-18T20:01:57.077Z,74.29
2023-02-18T20:04:31.932Z,74.38
2023-02-18T20:07:05.244Z,74.72
2023-02-18T20:09:39.481Z,75.63
2023-02-18T20:12:14.989Z,75.73
2023-02-18T20:14:51.053Z,75.74
2023-02-18T20:17:25.011Z,75.75
2023-02-18T20:19:58.251Z,76.74
2023-02-18T20:22:31.542Z,77.02
2023-02-18T20:25:05.316Z,75.77
2023-02-18T20:27:54.489Z,76.49
2023-02-18T20:30:32.986Z,76.79
2023-02-18T20:33:06.567Z,77.16
2023-02-18T20:35:40.062Z,76.96
2023-02-18T20:38:13.603Z,77.12
2023-02-18T20:40:46.735Z,77.24
2023-02-18T20:43:21.261Z,77.14
2023-02-18T20:45:54.588Z,77.28
2023-02-18T20:48:27.753Z,77.14
2023-02-18T20:51:04.908Z,77.94
2023-02-18T20:53:39.243Z,77.05
2023-02-18T20:56:13.160Z,77.69
2023-02-18T20:58:48.538Z,76.53
2023-02-18T21:01:21.781Z,77.82
2023-02-18T21:03:55.189Z,78.22
2023-02-18T21:06:29.414Z,76.92
2023-02-18T21:09:02.950Z,78.22
2023-02-18T21:11:36.597Z,77.90
2023-02-18T21:14:12.241Z,77.96
2023-02-18T21:16:46.099Z,77.85
2023-02-18T21:19:19.528Z,78.41
2023-02-18T21:21:52.774Z,78.82
2023-02-18T21:24:26.144Z,79.39
2023-02-18T21:26:59.769Z,78.03
2023-02-18T21:29:34.416Z,79.14
2023-02-18T21:32:08.144Z,79.19
2023-02-18T21:34:41.471Z,78.94
2023-02-18T21:37:14.699Z,79.38
2023-02-18T21:39:47.911Z,79.15
2023-02-18T21:42:21.405Z,78.85
2023-02-18T21:44:58.090Z,79.94
2023-02-18T21:47:31.372Z,79.95
2023-02-18T21:50:05.103Z,79.58
2023-02-18T21:52:38.371Z,79.97
2023-02-18T21:55:12.119Z,79.25
2023-02-18T21:57:45.368Z,79.32
2023-02-18T22:00:21.017Z,79.42
2023-02-18T22:02:54.753Z,80.16
2023-02-18T22:05:30.185Z,79.85
2023-02-18T22:08:03.451Z,79.72
2023-02-18T22:10:39.726Z,79.63
2023-02-18T22:13:14.069Z,80.23
2023-02-18T22:15:56.963Z,80.30
2023-02-18T22:18:32.048Z,80.19
2023-02-18T22:21:08.885Z,80.83
2023-02-18T22:23:42.828Z,81.36
2023-02-18T22:26:16.428Z,80.24
2023-02-18T22:28:54.420Z,80.77
2023-02-18T22:31:30.509Z,81.33
2023-02-18T22:34:04.285Z,80.78
2023-02-18T22:36:38.257Z,80.02
2023-02-18T22:39:13.122Z,80.66
2023-02-18T22:41:46.473Z,80.54
2023-02-18T22:44:20.412Z,80.91
2023-02-18T22:46:56.242Z,80.96
2023-02-18T22:49:29.619Z,81.63
2023-02-18T22:52:02.952Z,82.12
2023-02-18T22:54:36.656Z,81.65
2023-02-18T22:57:09.920Z,81.28
2023-02-18T22:59:43.233Z,81.52
2023-02-18T23:02:17.725Z,81.58
2023-02-18T23:04:50.925Z,81.50
2023-02-18T23:07:24.747Z,81.25
2023-02-18T23:09:58.229Z,81.27
2023-02-18T23:12:32.746Z,80.79
2023-02-18T23:15:06.481Z,80.75
2023-02-18T23:17:41.380Z,81.53
2023-02-18T23:20:14.729Z,81.66
2023-02-18T23:22:48.315Z,81.65
2023-02-18T23:25:21.584Z,81.59
2023-02-18T23:27:55.007Z,80.90
2023-02-18T23:30:28.968Z,80.88
2023-02-18T23:33:03.679Z,81.27
2023-02-18T23:35:36.889Z,83.10
2023-02-18T23:38:10.496Z,82.68
2023-02-18T23:40:43.708Z,82.31
2023-02-18T23:43:17.109Z,81.98
2023-02-18T23:45:50.658Z,81.79
2023-02-18T23:48:25.610Z,81.80
2023-02-18T23:51:02.394Z,82.17
2023-02-18T23:53:38.233Z,82.79
2023-02-18T23:56:14.928Z,82.18
2023-02-18T23:58:52.308Z,82.47
